createdAt,value
2018-01-17T08:06:47.945Z,30
2018-01-17T08:07:56.832Z,30
2018-01-17T08:09:05.647Z,30
2018-01-17T08:10:14.435Z,30
2018-01-17T08:11:23.230Z,30
2018-01-17T08:12:32.021Z,30
2018-01-17T08:13:41.081Z,30
2018-01-17T08:14:49.616Z,30
2018-01-17T08:15:58.401Z,35
2018-01-17T08:17:07.189Z,35
2018-01-17T08:18:15.985Z,35
2018-01-17T08:19:24.500Z,30
2018-01-17T08:20:33.304Z,40
2018-01-17T08:21:41.813Z,40
2018-01-17T08:22:50.492Z,40
2018-01-17T08:23:59.439Z,40
2018-01-17T08:25:08.225Z,45
2018-01-17T08:26:17.692Z,50
2018-01-17T08:27:27.012Z,45
2018-01-17T08:28:35.809Z,45
2018-01-17T08:29:44.599Z,45
2018-01-17T08:30:53.120Z,50
2018-01-17T08:32:01.648Z,60
2018-01-17T08:33:10.434Z,55
2018-01-17T08:34:19.492Z,55
2018-01-17T08:35:28.029Z,50
2018-01-17T08:36:36.826Z,25
2018-01-17T08:37:45.622Z,30
2018-01-17T08:38:54.411Z,40
2018-01-17T08:40:03.474Z,40
2018-01-17T08:41:11.994Z,45
2018-01-17T08:42:20.780Z,50
2018-01-17T08:43:29.838Z,50
2018-01-17T08:44:38.636Z,50
2018-01-17T08:45:47.430Z,50
2018-01-17T08:46:56.260Z,50
2018-01-17T08:48:05.049Z,55
2018-01-17T08:49:13.571Z,50
2018-01-17T08:50:22.366Z,55
2018-01-17T08:51:30.892Z,70
2018-01-17T08:52:39.412Z,95
2018-01-17T08:53:48.759Z,105
2018-01-17T08:54:57.257Z,70
2018-01-17T08:56:06.838Z,40
2018-01-17T08:57:15.369Z,25
2018-01-17T08:58:24.416Z,40
2018-01-17T08:59:33.206Z,45
2018-01-17T09:00:41.736Z,35
2018-01-17T09:01:50.261Z,40
2018-01-17T09:02:59.315Z,45
2018-01-17T09:04:08.383Z,45
2018-01-17T09:05:17.453Z,45
2018-01-17T09:06:26.232Z,45
2018-01-17T09:07:34.754Z,45
2018-01-17T09:08:43.550Z,40
2018-01-17T09:09:52.335Z,40
2018-01-17T09:11:01.122Z,50
2018-01-17T09:12:09.646Z,55
2018-01-17T09:13:18.433Z,60
2018-01-17T09:14:26.957Z,80
2018-01-17T09:15:36.003Z,65
2018-01-17T09:16:44.526Z,75
2018-01-17T09:17:53.320Z,85
2018-01-17T09:19:01.852Z,125
2018-01-17T09:20:10.650Z,135
2018-01-17T09:21:19.436Z,95
2018-01-17T09:22:29.090Z,75
2018-01-17T09:23:38.142Z,95
2018-01-17T09:24:47.194Z,85
2018-01-17T09:25:56.244Z,70
2018-01-17T09:27:05.043Z,85
2018-01-17T09:28:14.111Z,80
2018-01-17T09:29:22.912Z,50
2018-01-17T09:30:31.531Z,50
2018-01-17T09:31:40.581Z,60
2018-01-17T09:32:49.105Z,80
2018-01-17T09:33:57.628Z,85
2018-01-17T09:35:06.531Z,110
2018-01-17T09:36:15.332Z,145
2018-01-17T09:37:24.129Z,150
2018-01-17T09:38:32.657Z,135
2018-01-17T09:39:41.756Z,125
2018-01-17T09:40:50.908Z,130
2018-01-17T09:42:00.417Z,120
2018-01-17T09:43:09.781Z,130
2018-01-17T09:44:18.307Z,145
2018-01-17T09:45:27.363Z,115
2018-01-17T09:46:36.689Z,95
2018-01-17T09:47:45.475Z,100
2018-01-17T09:48:54.265Z,100
2018-01-17T09:50:03.324Z,90
2018-01-17T09:51:12.109Z,100
2018-01-17T09:52:20.686Z,115
2018-01-17T09:53:29.226Z,105
2018-01-17T09:54:37.749Z,90
2018-01-17T09:55:46.546Z,75
2018-01-17T09:56:55.062Z,90
2018-01-17T09:58:03.847Z,90
2018-01-17T09:59:12.905Z,105
2018-01-17T10:00:21.429Z,110
2018-01-17T10:01:30.225Z,115
2018-01-17T10:02:39.012Z,115
2018-01-17T10:03:47.804Z,135
2018-01-17T10:04:56.861Z,150
2018-01-17T10:06:06.180Z,140
2018-01-17T10:07:14.714Z,165
2018-01-17T10:08:23.507Z,220
2018-01-17T10:09:32.295Z,200
2018-01-17T10:10:41.089Z,125
2018-01-17T10:11:49.614Z,100
2018-01-17T10:12:58.411Z,95
2018-01-17T10:14:07.205Z,90
2018-01-17T10:15:15.996Z,80
2018-01-17T10:16:24.785Z,95
2018-01-17T10:17:33.309Z,95
2018-01-17T10:18:41.832Z,90
2018-01-17T10:19:50.355Z,100
2018-01-17T10:20:59.144Z,105
2018-01-17T10:22:08.468Z,85
2018-01-17T10:23:16.991Z,85
2018-01-17T10:24:25.785Z,100
2018-01-17T10:25:34.578Z,95
2018-01-17T10:26:43.104Z,95
2018-01-17T10:27:51.890Z,105
2018-01-17T10:29:00.722Z,160
2018-01-17T10:30:09.774Z,180
2018-01-17T10:31:19.123Z,175
2018-01-17T10:32:27.910Z,140
2018-01-17T10:33:37.226Z,130
2018-01-17T10:34:46.277Z,125
2018-01-17T10:35:54.809Z,120
2018-01-17T10:37:03.734Z,85
2018-01-17T10:38:12.527Z,80
2018-01-17T10:39:21.325Z,90
2018-01-17T10:40:29.860Z,80
2018-01-17T10:41:38.656Z,95
2018-01-17T10:42:47.446Z,85
2018-01-17T10:43:55.969Z,80
2018-01-17T10:45:04.536Z,70
2018-01-17T10:46:13.591Z,60
2018-01-17T10:47:22.708Z,55
2018-01-17T10:48:32.024Z,70
2018-01-17T10:49:41.344Z,80
2018-01-17T10:50:50.593Z,120
2018-01-17T10:51:59.118Z,190
2018-01-17T10:53:07.642Z,200
2018-01-17T10:54:16.700Z,255
2018-01-17T10:55:25.491Z,170
2018-01-17T10:56:34.329Z,240
2018-01-17T10:57:42.854Z,180
2018-01-17T10:58:51.643Z,140
2018-01-17T11:00:00.704Z,150
2018-01-17T11:01:09.560Z,85
2018-01-17T11:02:18.088Z,60
2018-01-17T11:03:26.629Z,35
2018-01-17T11:04:35.947Z,30
2018-01-17T11:05:45.005Z,45
2018-01-17T11:06:53.527Z,45
2018-01-17T11:08:02.721Z,70
2018-01-17T11:09:11.510Z,90
2018-01-17T11:10:20.301Z,100
2018-01-17T11:11:29.090Z,145
2018-01-17T11:12:38.148Z,200
2018-01-17T11:13:47.150Z,200
2018-01-17T11:14:55.938Z,170
2018-01-17T11:16:04.995Z,185
2018-01-17T11:17:13.787Z,115
2018-01-17T11:18:22.580Z,135
2018-01-17T11:19:31.102Z,135
2018-01-17T11:20:39.633Z,150
2018-01-17T11:21:48.698Z,145
2018-01-17T11:22:57.223Z,135
2018-01-17T11:24:06.023Z,155
2018-01-17T11:25:15.032Z,125
2018-01-17T11:26:24.784Z,120
2018-01-17T11:27:33.311Z,140
2018-01-17T11:28:42.123Z,135
2018-01-17T11:29:50.922Z,130
2018-01-17T11:30:59.980Z,110
2018-01-17T11:32:09.034Z,90
2018-01-17T11:33:17.824Z,75
2018-01-17T11:34:26.466Z,80
2018-01-17T11:35:35.268Z,85
2018-01-17T11:36:44.063Z,110
2018-01-17T11:37:52.583Z,140
2018-01-17T11:39:01.110Z,115
2018-01-17T11:40:10.162Z,60
2018-01-17T11:41:18.951Z,35
2018-01-17T11:42:27.478Z,45
2018-01-17T11:43:35.999Z,80
2018-01-17T11:44:44.519Z,80
2018-01-17T11:45:53.343Z,75
2018-01-17T11:47:02.131Z,70
2018-01-17T11:48:11.123Z,80
2018-01-17T11:49:20.175Z,90
2018-01-17T11:50:28.969Z,115
2018-01-17T11:51:37.487Z,135
2018-01-17T11:52:46.303Z,115
2018-01-17T11:53:55.363Z,120
2018-01-17T11:55:04.156Z,90
2018-01-17T11:56:12.672Z,60
2018-01-17T11:57:21.462Z,55
2018-01-17T11:58:30.255Z,65
2018-01-17T11:59:39.064Z,75
2018-01-17T12:00:48.381Z,130
2018-01-17T12:01:57.181Z,160
2018-01-17T12:03:05.704Z,155
2018-01-17T12:04:14.765Z,145
2018-01-17T12:05:23.552Z,130
2018-01-17T12:06:32.614Z,155
2018-01-17T12:07:41.687Z,130
2018-01-17T12:08:50.246Z,130
2018-01-17T12:09:59.044Z,140
2018-01-17T12:11:07.930Z,145
2018-01-17T12:12:16.720Z,130
2018-01-17T12:13:25.248Z,180
2018-01-17T12:14:34.034Z,155
2018-01-17T12:15:42.822Z,135
2018-01-17T12:16:52.149Z,160
2018-01-17T12:18:00.943Z,190
2018-01-17T12:19:09.726Z,185
2018-01-17T12:20:19.093Z,215
2018-01-17T12:21:27.922Z,210
2018-01-17T12:22:36.458Z,190
2018-01-17T12:23:45.538Z,180
2018-01-17T12:24:54.329Z,150
2018-01-17T12:26:03.122Z,160
2018-01-17T12:27:11.908Z,180
2018-01-17T12:28:20.963Z,160
2018-01-17T12:29:29.746Z,140
2018-01-17T12:30:38.535Z,170
2018-01-17T12:31:47.720Z,175
2018-01-17T12:32:56.512Z,155
2018-01-17T12:34:05.304Z,165
2018-01-17T12:35:13.979Z,115
2018-01-17T12:36:22.543Z,120
2018-01-17T12:37:31.078Z,110
2018-01-17T12:38:39.867Z,125
2018-01-17T12:39:49.092Z,145
2018-01-17T12:40:57.883Z,150
2018-01-17T12:42:06.748Z,145
2018-01-17T12:43:15.277Z,135
2018-01-17T12:44:24.329Z,165
2018-01-17T12:45:33.130Z,200
2018-01-17T12:46:42.187Z,170
2018-01-17T12:47:50.974Z,170
2018-01-17T12:49:00.030Z,175
2018-01-17T12:50:08.556Z,190
2018-01-17T12:51:17.347Z,190
2018-01-17T12:52:25.872Z,190
2018-01-17T12:53:34.927Z,190
2018-01-17T12:54:43.991Z,175
2018-01-17T12:55:53.045Z,150
2018-01-17T12:57:01.844Z,155
2018-01-17T12:58:10.378Z,170
2018-01-17T12:59:19.170Z,180
2018-01-17T13:00:28.509Z,180
2018-01-17T13:01:37.033Z,175
2018-01-17T13:02:46.358Z,165
2018-01-17T13:03:55.415Z,150
2018-01-17T13:05:04.738Z,145
2018-01-17T13:06:13.267Z,150
2018-01-17T13:07:22.323Z,150
2018-01-17T13:08:30.849Z,130
2018-01-17T13:09:39.904Z,130
2018-01-17T13:10:48.432Z,120
2018-01-17T13:11:56.959Z,120
2018-01-17T13:13:05.760Z,120
2018-01-17T13:14:14.291Z,130
2018-01-17T13:15:23.127Z,125
2018-01-17T13:16:31.919Z,155
2018-01-17T13:17:40.441Z,170
2018-01-17T13:18:49.490Z,190
2018-01-17T13:19:58.543Z,180
2018-01-17T13:21:07.067Z,135
2018-01-17T13:22:15.590Z,105
2018-01-17T13:23:24.113Z,110
2018-01-17T13:24:32.639Z,110
2018-01-17T13:25:41.423Z,110
2018-01-17T13:26:49.948Z,110
2018-01-17T13:27:58.473Z,120
2018-01-17T13:29:07.260Z,130
2018-01-17T13:30:15.784Z,110
2018-01-17T13:31:24.310Z,110
2018-01-17T13:32:33.098Z,130
2018-01-17T13:33:41.626Z,135
2018-01-17T13:34:50.682Z,125
2018-01-17T13:35:59.210Z,110
2018-01-17T13:37:07.738Z,125
2018-01-17T13:38:16.529Z,145
2018-01-17T13:39:25.583Z,170
2018-01-17T13:40:34.374Z,165
2018-01-17T13:41:43.424Z,190
2018-01-17T13:42:52.489Z,220
2018-01-17T13:44:01.282Z,255
2018-01-17T13:45:10.069Z,225
2018-01-17T13:46:19.125Z,185
2018-01-17T13:47:27.653Z,160
2018-01-17T13:48:36.438Z,145
2018-01-17T13:49:45.498Z,135
2018-01-17T13:50:54.023Z,110
2018-01-17T13:52:02.817Z,90
2018-01-17T13:53:11.874Z,85
2018-01-17T13:54:20.400Z,90
2018-01-17T13:55:28.929Z,90
2018-01-17T13:56:37.458Z,90
2018-01-17T13:57:46.248Z,90
2018-01-17T13:58:55.040Z,85
2018-01-17T14:00:03.568Z,85
2018-01-17T14:01:12.623Z,90
2018-01-17T14:02:21.420Z,85
2018-01-17T14:03:29.947Z,90
2018-01-17T14:04:38.471Z,85
2018-01-17T14:05:46.997Z,80
2018-01-17T14:06:56.085Z,75
2018-01-17T14:08:04.876Z,75
2018-01-17T14:09:13.711Z,65
2018-01-17T14:10:22.496Z,55
2018-01-17T14:11:31.288Z,35
2018-01-17T14:12:40.077Z,20
2018-01-17T14:13:48.876Z,15
2018-01-17T14:14:57.925Z,15
2018-01-17T14:16:06.718Z,15
2018-01-17T14:17:15.250Z,15
2018-01-17T14:18:23.771Z,25
2018-01-17T14:19:32.613Z,25
2018-01-17T14:20:41.402Z,15
2018-01-17T14:21:50.257Z,15
2018-01-17T14:22:59.064Z,20
2018-01-17T14:24:07.861Z,30
2018-01-17T14:25:16.650Z,35
2018-01-17T14:26:25.173Z,35
2018-01-17T14:27:33.963Z,30
2018-01-17T14:28:42.541Z,30
2018-01-17T14:29:51.070Z,30
2018-01-17T14:30:59.592Z,30
2018-01-17T14:32:08.120Z,55
2018-01-17T14:33:16.647Z,75
2018-01-17T14:34:25.444Z,75
2018-01-17T14:35:33.972Z,70
2018-01-17T14:36:42.588Z,60
2018-01-17T14:37:51.330Z,60
2018-01-17T14:39:00.114Z,70
2018-01-17T14:40:08.904Z,80
2018-01-17T14:41:17.708Z,85
2018-01-17T14:42:26.245Z,80
2018-01-17T14:43:35.034Z,80
2018-01-17T14:44:44.349Z,75
2018-01-17T14:45:52.875Z,75
2018-01-17T14:47:01.935Z,65
2018-01-17T14:48:10.727Z,75
2018-01-17T14:49:19.529Z,110
2018-01-17T14:50:28.377Z,110
2018-01-17T14:51:37.176Z,115
2018-01-17T14:52:46.291Z,100
2018-01-17T14:53:55.082Z,95
2018-01-17T14:55:03.870Z,90
2018-01-17T14:56:12.393Z,80
2018-01-17T14:57:21.188Z,70
2018-01-17T14:58:29.979Z,65
2018-01-17T14:59:39.028Z,70
2018-01-17T15:00:47.815Z,65
2018-01-17T15:01:56.877Z,55
2018-01-17T15:03:05.942Z,55
2018-01-17T15:04:14.727Z,70
2018-01-17T15:05:24.141Z,65
2018-01-17T15:06:32.722Z,55
2018-01-17T15:07:41.775Z,50
2018-01-17T15:08:50.606Z,50
2018-01-17T15:09:59.400Z,45
2018-01-17T15:11:08.185Z,40
2018-01-17T15:12:17.263Z,40
2018-01-17T15:13:26.057Z,40
2018-01-17T15:14:34.579Z,35
2018-01-17T15:15:43.364Z,35
2018-01-17T15:16:52.152Z,35
2018-01-17T15:18:00.694Z,40
2018-01-17T15:19:09.488Z,45
2018-01-17T15:20:18.572Z,35
2018-01-17T15:21:27.624Z,35
2018-01-17T15:22:36.147Z,35
2018-01-17T15:23:44.672Z,30
2018-01-17T15:24:53.197Z,30
2018-01-17T15:26:01.989Z,30
2018-01-17T15:27:10.782Z,30
2018-01-17T15:28:19.304Z,25
2018-01-17T15:29:28.571Z,25
2018-01-17T15:30:37.363Z,25
2018-01-17T15:31:45.885Z,25
2018-01-17T15:32:54.675Z,25
2018-01-17T15:34:03.198Z,20
2018-01-17T15:35:11.722Z,20
2018-01-17T15:36:20.507Z,20
2018-01-17T15:37:29.293Z,20
2018-01-17T15:38:37.826Z,20
2018-01-17T15:39:46.733Z,15
2018-01-17T15:40:55.944Z,15
2018-01-17T15:42:05.004Z,10
2018-01-17T15:43:13.790Z,10
2018-01-17T15:44:22.315Z,10
2018-01-17T15:45:31.105Z,10
2018-01-17T15:46:39.896Z,10
2018-01-17T15:47:48.688Z,10
2018-01-17T15:48:57.214Z,10
2018-01-17T15:50:05.739Z,10
2018-01-17T15:51:14.265Z,5
2018-01-17T15:52:23.054Z,5
2018-01-17T15:53:31.848Z,5
2018-01-17T15:54:41.039Z,5
2018-01-17T15:55:49.835Z,0
2018-01-17T15:56:58.624Z,0
2018-01-17T15:58:07.413Z,0
2018-01-17T15:59:16.532Z,0
2018-01-17T16:00:25.272Z,0
2018-01-17T16:01:34.060Z,0
2018-01-17T16:02:43.109Z,0
2018-01-17T16:03:52.231Z,0
2018-01-17T16:05:01.365Z,0
2018-01-17T16:06:10.272Z,0
2018-01-17T16:07:19.605Z,0
2018-01-17T16:08:28.534Z,0
2018-01-17T16:09:37.061Z,0
2018-01-17T16:10:47.943Z,0
2018-01-17T16:11:58.437Z,0
2018-01-17T16:13:07.241Z,0
2018-01-17T16:14:16.042Z,0
2018-01-17T16:15:24.834Z,0
2018-01-17T16:16:33.631Z,0
2018-01-17T16:17:42.427Z,0
2018-01-17T16:18:50.954Z,0
2018-01-17T16:19:59.741Z,0
2018-01-17T16:21:08.298Z,0
2018-01-17T16:22:16.821Z,0
2018-01-17T16:23:25.668Z,0
2018-01-17T16:24:34.190Z,0
2018-01-17T16:25:43.245Z,0
2018-01-17T16:26:51.768Z,0
2018-01-17T16:28:00.823Z,0
2018-01-17T16:29:09.616Z,0
2018-01-17T16:30:18.411Z,0
2018-01-17T16:31:27.198Z,0
2018-01-17T16:32:36.248Z,0
2018-01-17T16:33:45.298Z,0
2018-01-17T16:34:54.088Z,0
2018-01-17T16:36:03.146Z,0
2018-01-17T16:37:13.379Z,0
2018-01-17T16:38:22.172Z,0
2018-01-17T16:39:30.964Z,0
2018-01-17T16:40:39.746Z,0
2018-01-17T16:41:48.535Z,0
2018-01-17T16:42:57.323Z,0
2018-01-17T16:44:06.116Z,0
2018-01-17T16:45:14.908Z,0
2018-01-17T16:46:23.693Z,0
2018-01-17T16:47:32.480Z,0
2018-01-17T16:48:41.006Z,0
2018-01-17T16:49:49.526Z,0
2018-01-17T16:50:58.357Z,0
2018-01-17T16:52:06.891Z,0
2018-01-17T16:53:15.677Z,0
2018-01-17T16:54:24.729Z,0
2018-01-17T16:55:34.058Z,0
2018-01-17T16:56:42.581Z,0
2018-01-17T16:57:51.642Z,0
2018-01-17T16:59:00.434Z,0
2018-01-17T17:00:09.489Z,0
2018-01-17T17:01:18.287Z,0
2018-01-17T17:02:27.082Z,0
2018-01-17T17:03:35.607Z,0
2018-01-17T17:04:44.154Z,0
2018-01-17T17:05:52.654Z,0
2018-01-17T17:07:01.181Z,0
2018-01-17T17:08:10.044Z,0
2018-01-17T17:09:18.838Z,0
2018-01-17T17:10:27.888Z,0
2018-01-17T17:11:36.683Z,0
2018-01-17T17:12:45.206Z,0
2018-01-17T17:13:53.996Z,0
2018-01-17T17:15:02.781Z,0
2018-01-17T17:16:11.303Z,0
2018-01-17T17:17:19.839Z,0
2018-01-17T17:18:28.361Z,0
2018-01-17T17:19:37.147Z,0
2018-01-17T17:20:45.944Z,0
2018-01-17T17:21:54.468Z,0
2018-01-17T17:23:02.996Z,0
2018-01-17T17:24:12.053Z,0
2018-01-17T17:25:20.895Z,0
2018-01-17T17:26:30.216Z,0
2018-01-17T17:27:38.752Z,0
2018-01-17T17:28:47.272Z,0
2018-01-17T17:29:55.796Z,0
2018-01-17T17:31:04.860Z,0
2018-01-17T17:32:13.383Z,0
2018-01-17T17:33:22.170Z,0
2018-01-17T17:34:30.959Z,0
2018-01-17T17:35:39.486Z,0
2018-01-17T17:36:48.269Z,0
2018-01-17T17:37:57.054Z,0
2018-01-17T17:39:05.852Z,0
2018-01-17T17:40:14.636Z,0
2018-01-17T17:41:23.423Z,0
2018-01-17T17:42:32.211Z,0
2018-01-17T17:43:41.000Z,0
2018-01-17T17:44:50.540Z,0
2018-01-17T17:45:59.322Z,0
2018-01-17T17:47:08.377Z,0
2018-01-17T17:48:17.167Z,0
2018-01-17T17:49:26.230Z,0
2018-01-17T17:50:35.530Z,0
2018-01-17T17:51:44.050Z,0
2018-01-17T17:52:52.580Z,0
2018-01-17T17:54:01.368Z,0
2018-01-17T17:55:10.154Z,0
2018-01-17T17:56:18.829Z,0
2018-01-17T17:57:27.618Z,0
2018-01-17T17:58:36.404Z,0
2018-01-17T17:59:45.189Z,0
2018-01-17T18:00:53.999Z,0
2018-01-17T18:02:02.802Z,0
2018-01-17T18:03:11.862Z,0
2018-01-17T18:04:20.659Z,0
2018-01-17T18:05:29.184Z,0
2018-01-17T18:06:37.972Z,0
2018-01-17T18:07:46.766Z,0
2018-01-17T18:08:55.547Z,0
2018-01-17T18:10:04.609Z,0
2018-01-17T18:11:13.935Z,0
2018-01-17T18:12:22.463Z,0
2018-01-17T18:13:31.522Z,0
2018-01-17T18:14:40.309Z,0
2018-01-17T18:15:49.100Z,0
2018-01-17T18:16:57.884Z,0
2018-01-17T18:18:06.815Z,0
2018-01-17T18:19:15.332Z,0
2018-01-17T18:20:24.128Z,0
2018-01-17T18:21:33.446Z,0
2018-01-17T18:22:42.504Z,0
2018-01-17T18:23:51.569Z,0
2018-01-17T18:25:01.157Z,0
2018-01-17T18:26:09.954Z,0
2018-01-17T18:27:19.009Z,0
2018-01-17T18:28:28.059Z,0
2018-01-17T18:29:36.850Z,0
2018-01-17T18:30:45.991Z,0
2018-01-17T18:31:54.775Z,0
2018-01-17T18:33:03.829Z,0
2018-01-17T18:34:12.883Z,0
2018-01-17T18:35:21.405Z,0
2018-01-17T18:36:30.217Z,0
2018-01-17T18:37:39.270Z,0
2018-01-17T18:38:48.589Z,0
2018-01-17T18:39:57.647Z,0
2018-01-17T18:41:06.184Z,0
2018-01-17T18:42:14.972Z,0
2018-01-17T18:43:23.495Z,0
2018-01-17T18:44:32.286Z,0
2018-01-17T18:45:41.073Z,0
2018-01-17T18:46:49.866Z,0
2018-01-17T18:47:58.659Z,0
2018-01-17T18:49:07.982Z,0
2018-01-17T18:50:16.769Z,0
2018-01-17T18:51:26.088Z,0
2018-01-17T18:52:34.880Z,0
2018-01-17T18:53:43.674Z,0
2018-01-17T18:54:52.205Z,0
2018-01-17T18:56:00.831Z,0
2018-01-17T18:57:09.366Z,0
2018-01-17T18:58:17.890Z,0
2018-01-17T18:59:26.673Z,0
2018-01-17T19:00:35.199Z,0
2018-01-17T19:01:44.261Z,0
2018-01-17T19:02:52.783Z,0
2018-01-17T19:04:01.577Z,0
2018-01-17T19:05:10.364Z,0
2018-01-17T19:06:19.422Z,0
2018-01-17T19:07:28.212Z,0
2018-01-17T19:08:36.733Z,0
2018-01-17T19:09:45.790Z,0
2018-01-17T19:10:54.578Z,0
2018-01-17T19:12:03.632Z,0
2018-01-17T19:13:12.426Z,0
2018-01-17T19:14:21.215Z,0
2018-01-17T19:15:30.004Z,0
2018-01-17T19:16:38.525Z,0
2018-01-17T19:17:47.333Z,0
2018-01-17T19:18:56.386Z,0
2018-01-17T19:20:04.910Z,0
2018-01-17T19:21:13.430Z,0
2018-01-17T19:22:22.219Z,0
2018-01-17T19:23:31.051Z,0
2018-01-17T19:24:39.579Z,0
2018-01-17T19:25:48.104Z,0
2018-01-17T19:26:56.634Z,0
2018-01-17T19:28:05.427Z,0
2018-01-17T19:29:14.226Z,0
2018-01-17T19:30:23.546Z,0
2018-01-17T19:31:32.333Z,0
2018-01-17T19:32:41.125Z,0
2018-01-17T19:33:49.923Z,0
2018-01-17T19:34:58.708Z,0
2018-01-17T19:36:07.755Z,0
2018-01-17T19:37:16.543Z,0
2018-01-17T19:38:25.332Z,0
2018-01-17T19:39:33.865Z,0
2018-01-17T19:40:42.923Z,0
2018-01-17T19:41:51.713Z,0
2018-01-17T19:43:00.238Z,0
2018-01-17T19:44:09.217Z,0
2018-01-17T19:45:18.008Z,0
2018-01-17T19:46:26.794Z,0
2018-01-17T19:47:35.881Z,0
2018-01-17T19:48:44.404Z,0
2018-01-17T19:49:52.930Z,0
2018-01-17T19:51:01.980Z,0
2018-01-17T19:52:11.028Z,0
2018-01-17T19:53:19.812Z,0
2018-01-17T19:54:28.334Z,0
2018-01-17T19:55:37.121Z,0
2018-01-17T19:56:46.178Z,0
2018-01-17T19:57:54.966Z,0
2018-01-17T19:59:03.490Z,0
2018-01-17T20:00:12.562Z,0
2018-01-17T20:01:21.351Z,0
2018-01-17T20:02:29.879Z,0
2018-01-17T20:03:38.411Z,0
2018-01-17T20:04:47.206Z,0
2018-01-17T20:05:55.730Z,0
2018-01-17T20:07:04.250Z,0
2018-01-17T20:08:12.775Z,0
2018-01-17T20:09:23.572Z,0
2018-01-17T20:10:32.368Z,0
2018-01-17T20:11:41.151Z,0
2018-01-17T20:12:49.936Z,0
2018-01-17T20:13:58.720Z,0
2018-01-17T20:15:07.775Z,0
2018-01-17T20:16:16.561Z,0
2018-01-17T20:17:25.608Z,0
2018-01-17T20:18:34.139Z,0
2018-01-17T20:19:42.972Z,0
2018-01-17T20:20:52.292Z,0
2018-01-17T20:22:01.083Z,0
2018-01-17T20:23:09.605Z,0
2018-01-17T20:24:18.394Z,0
2018-01-17T20:25:27.190Z,0
2018-01-17T20:26:36.255Z,0
2018-01-17T20:27:45.097Z,0
2018-01-17T20:28:53.618Z,0
2018-01-17T20:30:02.427Z,0
2018-01-17T20:31:11.217Z,0
2018-01-17T20:32:20.007Z,0
2018-01-17T20:33:29.064Z,0
2018-01-17T20:34:37.850Z,0
2018-01-17T20:35:46.630Z,0
2018-01-17T20:36:55.684Z,0
2018-01-17T20:38:05.265Z,0
2018-01-17T20:39:14.329Z,0
2018-01-17T20:40:23.115Z,0
2018-01-17T20:41:31.903Z,0
2018-01-17T20:42:40.424Z,0
2018-01-17T20:43:49.214Z,0
2018-01-17T20:44:57.737Z,0
2018-01-17T20:46:06.262Z,0
2018-01-17T20:47:14.785Z,0
2018-01-17T20:48:23.580Z,0
2018-01-17T20:49:32.896Z,0
2018-01-17T20:50:41.676Z,0
2018-01-17T20:51:50.988Z,0
2018-01-17T20:53:00.045Z,0
2018-01-17T20:54:08.868Z,0
2018-01-17T20:55:17.929Z,0
2018-01-17T20:56:26.982Z,0
2018-01-17T20:57:36.034Z,0
2018-01-17T20:58:44.555Z,0
2018-01-17T20:59:53.081Z,0
2018-01-17T21:01:01.874Z,0
2018-01-17T21:02:10.666Z,0
2018-01-17T21:03:19.456Z,0
2018-01-17T21:04:28.781Z,0
2018-01-17T21:05:37.571Z,0
2018-01-17T21:06:46.357Z,0
2018-01-17T21:07:55.201Z,0
2018-01-17T21:09:03.990Z,0
2018-01-17T21:10:12.776Z,0
2018-01-17T21:11:21.302Z,0
2018-01-17T21:12:30.358Z,0
2018-01-17T21:13:39.404Z,0
2018-01-17T21:14:47.929Z,0
2018-01-17T21:15:56.718Z,0
2018-01-17T21:17:05.246Z,0
2018-01-17T21:18:13.772Z,0
2018-01-17T21:19:22.560Z,0
2018-01-17T21:20:31.095Z,0
2018-01-17T21:21:39.622Z,0
2018-01-17T21:22:48.152Z,0
2018-01-17T21:23:56.937Z,0
2018-01-17T21:25:06.028Z,0
2018-01-17T21:26:15.081Z,0
2018-01-17T21:27:23.600Z,0
2018-01-17T21:28:32.127Z,0
2018-01-17T21:29:40.650Z,0
2018-01-17T21:30:49.440Z,0
2018-01-17T21:31:57.962Z,0
2018-01-17T21:33:06.754Z,0
2018-01-17T21:34:16.072Z,0
2018-01-17T21:35:24.867Z,0
2018-01-17T21:36:33.921Z,0
2018-01-17T21:37:42.446Z,0
2018-01-17T21:38:51.233Z,0
2018-01-17T21:40:00.032Z,0
2018-01-17T21:41:09.094Z,0
2018-01-17T21:42:17.997Z,0
2018-01-17T21:43:26.653Z,0
2018-01-17T21:44:35.213Z,0
2018-01-17T21:45:43.856Z,0
2018-01-17T21:46:52.727Z,0
2018-01-17T21:48:01.510Z,0
2018-01-17T21:49:11.146Z,0
2018-01-17T21:50:20.314Z,0
2018-01-17T21:51:29.103Z,0
2018-01-17T21:52:37.646Z,0
2018-01-17T21:53:46.903Z,0
2018-01-17T21:54:55.741Z,0
2018-01-17T21:56:04.399Z,0
2018-01-17T21:57:12.921Z,0
2018-01-17T21:58:21.770Z,0
2018-01-17T21:59:30.463Z,0
2018-01-17T22:00:39.303Z,0
2018-01-17T22:01:48.021Z,0
2018-01-17T22:02:56.880Z,0
2018-01-17T22:04:05.728Z,0
2018-01-17T22:05:14.828Z,0
2018-01-17T22:06:23.375Z,0
2018-01-17T22:07:31.876Z,0
2018-01-17T22:08:40.584Z,0
2018-01-17T22:09:49.520Z,0
2018-01-17T22:10:58.361Z,0
2018-01-17T22:12:07.798Z,0
2018-01-17T22:13:16.323Z,0
2018-01-17T22:14:24.917Z,0
2018-01-17T22:15:34.041Z,0
2018-01-17T22:16:43.049Z,0
2018-01-17T22:17:51.581Z,0
2018-01-17T22:19:00.359Z,0
2018-01-17T22:20:09.149Z,0
2018-01-17T22:21:17.675Z,0
2018-01-17T22:22:26.526Z,0
2018-01-17T22:23:35.407Z,0
2018-01-17T22:24:44.192Z,0
2018-01-17T22:25:52.988Z,0
2018-01-17T22:27:02.039Z,0
2018-01-17T22:28:11.093Z,0
2018-01-17T22:29:19.919Z,0
2018-01-17T22:30:28.681Z,0
2018-01-17T22:31:37.522Z,0
2018-01-17T22:32:46.046Z,0
2018-01-17T22:33:55.100Z,0
2018-01-17T22:35:04.181Z,0
2018-01-17T22:36:12.676Z,0
2018-01-17T22:37:21.203Z,0
2018-01-17T22:38:29.727Z,0
2018-01-17T22:39:38.251Z,0
2018-01-17T22:40:46.771Z,0
2018-01-17T22:41:55.562Z,0
2018-01-17T22:43:04.623Z,0
2018-01-17T22:44:13.419Z,0
2018-01-17T22:45:22.472Z,0
2018-01-17T22:46:31.528Z,0
2018-01-17T22:47:40.844Z,0
2018-01-17T22:48:49.629Z,0
2018-01-17T22:49:58.421Z,0
2018-01-17T22:51:06.940Z,0
2018-01-17T22:52:15.735Z,0
2018-01-17T22:53:24.523Z,0
2018-01-17T22:54:33.308Z,0
2018-01-17T22:55:42.374Z,0
2018-01-17T22:56:50.894Z,0
2018-01-17T22:57:59.693Z,0
2018-01-17T22:59:08.217Z,0
2018-01-17T23:00:17.010Z,0
2018-01-17T23:01:26.064Z,0
2018-01-17T23:02:34.590Z,0
2018-01-17T23:03:43.376Z,0
2018-01-17T23:04:52.162Z,0
2018-01-17T23:06:01.217Z,0
2018-01-17T23:07:10.281Z,0
2018-01-17T23:08:19.070Z,0
2018-01-17T23:09:28.127Z,0
2018-01-17T23:10:37.184Z,0
2018-01-17T23:11:45.973Z,0
2018-01-17T23:12:54.762Z,0
2018-01-17T23:14:03.559Z,0
2018-01-17T23:15:12.613Z,0
2018-01-17T23:16:21.138Z,0
2018-01-17T23:17:29.931Z,0
2018-01-17T23:18:38.979Z,0
2018-01-17T23:19:47.504Z,0
2018-01-17T23:20:56.292Z,0
2018-01-17T23:22:05.359Z,0
2018-01-17T23:23:14.150Z,0
2018-01-17T23:24:22.934Z,0
2018-01-17T23:25:31.453Z,0
2018-01-17T23:26:40.242Z,0
2018-01-17T23:27:49.040Z,0
2018-01-17T23:28:58.364Z,0
2018-01-17T23:30:06.887Z,0
2018-01-17T23:31:15.942Z,0
2018-01-17T23:32:24.469Z,0
2018-01-17T23:33:32.998Z,0
2018-01-17T23:34:41.524Z,0
2018-01-17T23:35:50.047Z,0
2018-01-17T23:36:59.365Z,0
2018-01-17T23:38:08.155Z,0
2018-01-17T23:39:18.464Z,0
2018-01-17T23:40:26.990Z,0
2018-01-17T23:41:35.778Z,0
2018-01-17T23:42:44.304Z,0
2018-01-17T23:43:53.356Z,0
2018-01-17T23:45:01.887Z,0
2018-01-17T23:46:10.945Z,0
2018-01-17T23:47:20.004Z,0
2018-01-17T23:48:28.538Z,0
2018-01-17T23:49:37.856Z,0
2018-01-17T23:50:46.914Z,0
2018-01-17T23:51:55.440Z,0
2018-01-17T23:53:04.232Z,0
2018-01-17T23:54:13.023Z,0
2018-01-17T23:55:21.815Z,0
2018-01-17T23:56:30.870Z,0
2018-01-17T23:57:40.202Z,0
2018-01-17T23:58:48.733Z,0
2018-01-17T23:59:57.788Z,0
